RJSC(METAR)
02/17 19:00
METAR RJSC 171000Z 35013KT 9999 FEW020 SCT050 BKN080 03/01 Q1003 RMK
1CU020 3CU050 6AC080 A2964=
戻る
トップページへ戻る
IMOC Co,.Ltd.